Time;durP1;ratioP1;P1;durP2;ratioP2;P2;SDS_P1;SDS_P2;PMS_P1;PMS_P2;Temp;Humidity;BMP_temperature;BMP_pressure;BME280_temperature;BME280_humidity;BME280_pressure;Samples;Min_cycle;Max_cycle;Signal;HPM_P1;HPM_P2
2022/03/06 00:01:13;;;;;;;8.90;5.10;;;;;;;0.17;71.67;101739.29;108140;1277;59318;-74
2022/03/06 00:03:40;;;;;;;9.40;5.90;;;;;;;0.15;71.80;101737.65;108217;1277;75848;-75
2022/03/06 00:06:07;;;;;;;9.10;5.20;;;;;;;0.12;72.07;101739.07;108152;1277;59902;-74
2022/03/06 00:08:33;;;;;;;8.20;5.70;;;;;;;0.11;72.39;101744.35;108054;1278;60732;-74
2022/03/06 00:11:00;;;;;;;10.00;5.60;;;;;;;0.09;72.68;101746.73;108147;1277;60037;-75
2022/03/06 00:13:26;;;;;;;11.10;6.20;;;;;;;0.08;73.04;101747.44;107807;1278;62059;-76
2022/03/06 00:15:53;;;;;;;12.30;5.90;;;;;;;0.08;73.73;101745.70;108165;1277;60439;-75
2022/03/06 00:18:19;;;;;;;8.80;4.80;;;;;;;0.08;74.01;101749.03;108152;1277;71257;-76
2022/03/06 00:20:46;;;;;;;6.20;3.90;;;;;;;0.12;74.10;101751.77;108157;1277;59942;-75
2022/03/06 00:23:13;;;;;;;15.40;7.60;;;;;;;0.14;74.31;101751.33;107950;1279;61143;-76
2022/03/06 00:25:39;;;;;;;11.30;7.50;;;;;;;0.16;74.13;101749.95;107956;1278;61757;-75
2022/03/06 00:28:06;;;;;;;8.70;5.00;;;;;;;0.18;74.18;101747.22;108173;1277;75811;-75
2022/03/06 00:30:32;;;;;;;10.00;5.70;;;;;;;0.21;74.35;101744.85;107854;1280;60525;-75
2022/03/06 00:32:59;;;;;;;9.30;6.10;;;;;;;0.23;74.22;101745.97;108174;1277;59826;-72
2022/03/06 00:35:28;;;;;;;10.70;5.30;;;;;;;0.25;74.40;101744.09;108133;1278;61178;-75
2022/03/06 00:37:56;;;;;;;11.80;6.60;;;;;;;0.27;74.47;101740.17;108175;1278;60331;-73
2022/03/06 00:40:23;;;;;;;13.10;6.70;;;;;;;0.27;74.46;101740.19;107973;1277;76762;-74
2022/03/06 00:42:50;;;;;;;15.50;6.10;;;;;;;0.31;74.74;101745.89;107985;1278;72323;-75
2022/03/06 00:45:17;;;;;;;11.80;7.00;;;;;;;0.32;74.82;101750.85;108131;1277;72908;-75
2022/03/06 00:47:44;;;;;;;12.10;6.10;;;;;;;0.35;74.94;101757.48;108174;1277;61501;-73
2022/03/06 00:50:11;;;;;;;7.90;4.90;;;;;;;0.37;75.09;101758.56;108183;1277;61627;-74
2022/03/06 00:52:39;;;;;;;7.50;4.60;;;;;;;0.41;75.25;101760.14;108215;1277;76192;-74
2022/03/06 00:55:06;;;;;;;11.20;6.70;;;;;;;0.43;75.47;101759.83;108161;1277;71407;-74
2022/03/06 00:57:33;;;;;;;11.00;5.00;;;;;;;0.46;75.38;101759.15;108177;1277;74559;-75
2022/03/06 00:59:59;;;;;;;10.00;5.50;;;;;;;0.48;75.28;101759.23;108165;1277;62614;-74
2022/03/06 01:02:27;;;;;;;13.80;6.90;;;;;;;0.50;75.27;101759.66;108200;1277;60153;-73
2022/03/06 01:04:54;;;;;;;8.10;3.50;;;;;;;0.51;75.24;101758.87;108144;1277;75748;-75
2022/03/06 01:07:23;;;;;;;7.10;4.60;;;;;;;0.51;75.39;101759.27;108236;1277;59982;-76
2022/03/06 01:09:49;;;;;;;8.90;4.80;;;;;;;0.52;75.41;101763.55;107971;1277;72948;-74
2022/03/06 01:12:18;;;;;;;6.90;4.80;;;;;;;0.52;75.59;101762.66;108171;1277;60551;-75
2022/03/06 01:14:45;;;;;;;6.40;4.30;;;;;;;0.55;75.76;101764.79;107659;1278;60077;-74
2022/03/06 01:17:11;;;;;;;9.00;4.70;;;;;;;0.56;75.88;101766.99;108177;1277;59985;-74
2022/03/06 01:19:38;;;;;;;8.70;5.30;;;;;;;0.56;76.05;101766.84;108170;1277;61016;-74
2022/03/06 01:22:04;;;;;;;8.60;4.50;;;;;;;0.55;76.03;101769.96;108025;1280;59986;-75
2022/03/06 01:24:33;;;;;;;12.60;5.30;;;;;;;0.56;76.00;101779.69;108189;1277;59805;-74
2022/03/06 01:27:00;;;;;;;9.00;5.30;;;;;;;0.55;76.08;101774.31;108151;1277;60277;-74
2022/03/06 01:29:26;;;;;;;6.90;4.70;;;;;;;0.55;76.04;101774.49;107982;1279;61897;-75
2022/03/06 01:31:54;;;;;;;8.70;4.80;;;;;;;0.55;75.97;101776.61;108195;1277;59934;-75
2022/03/06 01:34:20;;;;;;;11.50;5.60;;;;;;;0.55;76.02;101778.01;107960;1277;72102;-74
2022/03/06 01:36:47;;;;;;;7.50;4.70;;;;;;;0.55;76.02;101777.98;107961;1277;62171;-75
2022/03/06 01:39:13;;;;;;;8.70;4.90;;;;;;;0.57;75.87;101776.84;108159;1277;61347;-75
2022/03/06 01:41:40;;;;;;;6.00;3.40;;;;;;;0.58;75.91;101780.42;108143;1278;59407;-74
2022/03/06 01:44:12;;;;;;;11.30;5.20;;;;;;;0.59;75.73;101777.58;108116;1277;60737;-73
2022/03/06 01:46:39;;;;;;;10.40;5.70;;;;;;;0.62;75.70;101777.79;108121;1277;74257;-75
2022/03/06 01:49:06;;;;;;;10.60;5.40;;;;;;;0.63;75.64;101777.70;108142;1277;62599;-74
2022/03/06 01:51:32;;;;;;;5.80;4.30;;;;;;;0.65;75.55;101779.52;108092;1277;61411;-74
2022/03/06 01:53:59;;;;;;;11.20;6.30;;;;;;;0.67;75.49;101779.08;108044;1278;60070;-74
2022/03/06 01:56:26;;;;;;;12.20;6.00;;;;;;;0.68;75.72;101782.70;108164;1277;59977;-74
2022/03/06 01:58:52;;;;;;;9.20;4.60;;;;;;;0.69;75.71;101782.64;107963;1279;59936;-74
2022/03/06 02:01:19;;;;;;;11.20;5.40;;;;;;;0.70;75.71;101780.69;107843;1280;60425;-75
2022/03/06 02:03:46;;;;;;;12.00;6.30;;;;;;;0.70;75.78;101786.39;107943;1277;61611;-76
2022/03/06 02:06:12;;;;;;;8.90;5.70;;;;;;;0.71;75.73;101782.01;108108;1277;60288;-75
2022/03/06 02:08:40;;;;;;;12.10;6.60;;;;;;;0.72;75.80;101781.24;107932;1278;60073;-74
2022/03/06 02:11:08;;;;;;;7.10;5.00;;;;;;;0.71;75.93;101779.89;108111;1277;73123;-75
2022/03/06 02:13:35;;;;;;;12.50;5.80;;;;;;;0.71;76.11;101780.74;107914;1278;62647;-75
2022/03/06 02:16:02;;;;;;;10.80;5.40;;;;;;;0.71;76.16;101776.08;108125;1277;59882;-75
2022/03/06 02:18:29;;;;;;;5.40;3.50;;;;;;;0.71;76.30;101771.17;108151;1277;75081;-74
2022/03/06 02:20:56;;;;;;;13.80;6.30;;;;;;;0.71;76.24;101769.81;107917;1278;70728;-75
2022/03/06 02:23:24;;;;;;;10.00;6.10;;;;;;;0.71;76.22;101768.95;108144;1277;74485;-75
2022/03/06 02:25:50;;;;;;;9.20;3.70;;;;;;;0.70;76.20;101765.66;107789;1277;62433;-74
2022/03/06 02:28:17;;;;;;;10.30;5.70;;;;;;;0.71;76.17;101765.11;107931;1280;60773;-75
2022/03/06 02:30:44;;;;;;;6.90;4.30;;;;;;;0.71;76.29;101766.16;108146;1277;75889;-74
2022/03/06 02:33:12;;;;;;;10.40;4.70;;;;;;;0.70;76.27;101766.36;108146;1277;71351;-75
2022/03/06 02:35:39;;;;;;;9.80;4.80;;;;;;;0.70;76.41;101764.98;107980;1278;74125;-74
2022/03/06 02:38:06;;;;;;;11.30;5.80;;;;;;;0.69;76.33;101762.60;108162;1277;63015;-74
2022/03/06 02:40:42;;;;;;;8.30;4.80;;;;;;;0.69;76.43;101757.03;108161;1277;60618;-75
2022/03/06 02:43:13;;;;;;;14.10;5.10;;;;;;;0.67;76.27;101754.69;108128;1277;76778;-75
2022/03/06 02:45:42;;;;;;;8.30;4.00;;;;;;;0.67;76.45;101753.66;108019;1277;71542;-74
2022/03/06 02:48:09;;;;;;;7.40;4.30;;;;;;;0.66;76.27;101759.81;107971;1277;74390;-74
2022/03/06 02:50:40;;;;;;;8.00;5.30;;;;;;;0.65;76.11;101762.98;108128;1277;61371;-74
2022/03/06 02:53:09;;;;;;;6.30;4.30;;;;;;;0.64;76.04;101759.55;107937;1277;60940;-74
2022/03/06 02:55:36;;;;;;;6.40;3.50;;;;;;;0.64;75.99;101759.06;107799;1279;75876;-75
2022/03/06 02:58:03;;;;;;;8.30;4.50;;;;;;;0.63;75.93;101757.17;108165;1277;72499;-74
2022/03/06 03:00:30;;;;;;;7.40;3.70;;;;;;;0.62;75.83;101758.10;108126;1277;73010;-75
2022/03/06 03:02:56;;;;;;;4.20;2.70;;;;;;;0.62;75.81;101754.27;107945;1277;63187;-74
2022/03/06 03:05:23;;;;;;;7.90;3.30;;;;;;;0.61;75.72;101753.43;107910;1277;61588;-74
2022/03/06 03:07:50;;;;;;;7.50;4.40;;;;;;;0.60;75.61;101755.26;108156;1277;76687;-75
2022/03/06 03:10:20;;;;;;;8.10;4.90;;;;;;;0.59;75.69;101751.30;107918;1279;59916;-74
2022/03/06 03:12:46;;;;;;;7.10;3.70;;;;;;;0.59;75.78;101747.86;108153;1277;72314;-73
2022/03/06 03:15:13;;;;;;;8.10;4.30;;;;;;;0.57;75.82;101749.15;108146;1277;59982;-76
2022/03/06 03:17:41;;;;;;;8.80;4.30;;;;;;;0.56;75.64;101749.57;108172;1277;61386;-76
2022/03/06 03:20:08;;;;;;;6.40;3.70;;;;;;;0.55;75.81;101748.04;108166;1277;75756;-76
2022/03/06 03:22:35;;;;;;;5.30;3.50;;;;;;;0.54;75.84;101746.04;108130;1277;72625;-76
2022/03/06 03:25:04;;;;;;;7.10;4.60;;;;;;;0.52;75.89;101746.61;108149;1277;71547;-75
2022/03/06 03:27:30;;;;;;;7.30;4.00;;;;;;;0.52;76.02;101749.59;107914;1277;62652;-75
2022/03/06 03:29:56;;;;;;;7.50;3.90;;;;;;;0.52;75.91;101750.48;108166;1277;60019;-75
2022/03/06 03:32:23;;;;;;;6.80;4.00;;;;;;;0.51;75.94;101751.57;108157;1277;59946;-76
2022/03/06 03:34:50;;;;;;;7.70;3.60;;;;;;;0.48;75.71;101750.67;108125;1277;59337;-75
2022/03/06 03:37:16;;;;;;;9.40;3.50;;;;;;;0.47;75.65;101753.18;108134;1277;72988;-75
2022/03/06 03:39:43;;;;;;;8.50;3.40;;;;;;;0.45;75.66;101752.94;108167;1277;60057;-75
2022/03/06 03:42:09;;;;;;;8.80;3.00;;;;;;;0.44;75.67;101755.48;107948;1277;60617;-75
2022/03/06 03:44:35;;;;;;;4.50;2.50;;;;;;;0.42;75.61;101755.21;108214;1277;59886;-75
2022/03/06 03:47:02;;;;;;;7.80;2.90;;;;;;;0.39;75.61;101756.20;108146;1277;59891;-75
2022/03/06 03:49:29;;;;;;;5.20;2.80;;;;;;;0.37;75.34;101759.43;108131;1277;73967;-75
2022/03/06 03:51:55;;;;;;;2.80;2.00;;;;;;;0.35;75.41;101758.50;108141;1277;61956;-74
2022/03/06 03:54:22;;;;;;;6.50;3.30;;;;;;;0.34;75.39;101759.27;107813;1277;59965;-74
2022/03/06 03:56:48;;;;;;;4.40;3.20;;;;;;;0.33;75.07;101760.04;108166;1277;60767;-74
2022/03/06 03:59:15;;;;;;;5.50;2.90;;;;;;;0.33;75.31;101766.46;108166;1277;60691;-74
2022/03/06 04:01:41;;;;;;;3.80;2.00;;;;;;;0.32;75.06;101766.34;108162;1277;59995;-74
2022/03/06 04:04:08;;;;;;;4.60;2.50;;;;;;;0.31;75.02;101767.06;108165;1277;62524;-75
2022/03/06 04:06:34;;;;;;;5.40;3.10;;;;;;;0.30;74.99;101762.09;107934;1278;60167;-75
2022/03/06 04:09:01;;;;;;;3.70;2.20;;;;;;;0.29;74.81;101766.14;108163;1277;59495;-74
2022/03/06 04:11:28;;;;;;;4.70;2.20;;;;;;;0.28;74.86;101771.11;107922;1277;72967;-74
2022/03/06 04:13:54;;;;;;;5.20;2.40;;;;;;;0.26;74.93;101769.63;107852;1280;59820;-74
2022/03/06 04:16:24;;;;;;;6.10;3.10;;;;;;;0.23;74.78;101765.09;108166;1277;60285;-76
2022/03/06 04:18:50;;;;;;;5.10;2.90;;;;;;;0.24;74.91;101769.05;108230;1277;61741;-74
2022/03/06 04:21:17;;;;;;;4.70;2.40;;;;;;;0.22;74.91;101773.65;108168;1277;76857;-74
2022/03/06 04:23:45;;;;;;;4.80;2.40;;;;;;;0.21;74.72;101770.91;108216;1277;59890;-74
2022/03/06 04:26:11;;;;;;;5.50;2.70;;;;;;;0.20;74.77;101770.27;108152;1277;74055;-74
2022/03/06 04:28:37;;;;;;;5.10;2.10;;;;;;;0.19;74.72;101768.92;108153;1277;60134;-74
2022/03/06 04:31:04;;;;;;;5.20;2.20;;;;;;;0.18;74.77;101779.92;108146;1277;60109;-76
2022/03/06 04:33:30;;;;;;;5.50;3.00;;;;;;;0.17;74.80;101779.84;108231;1271;59926;-76
2022/03/06 04:35:57;;;;;;;8.60;2.70;;;;;;;0.16;74.89;101785.80;108204;1277;59949;-75
2022/03/06 04:38:23;;;;;;;3.10;2.10;;;;;;;0.17;74.80;101783.16;108238;1277;59880;-75
2022/03/06 04:40:50;;;;;;;4.50;1.80;;;;;;;0.16;74.74;101788.05;108198;1277;59974;-76
2022/03/06 04:43:16;;;;;;;4.80;2.70;;;;;;;0.15;74.87;101788.30;108246;1277;60087;-75
2022/03/06 04:45:43;;;;;;;4.30;2.20;;;;;;;0.14;74.97;101791.81;108228;1277;59470;-77
2022/03/06 04:48:09;;;;;;;5.10;2.50;;;;;;;0.14;74.86;101792.72;108248;1277;60179;-75
2022/03/06 04:50:38;;;;;;;5.80;2.90;;;;;;;0.13;74.94;101797.45;108052;1277;72934;-75
2022/03/06 04:53:04;;;;;;;3.90;2.70;;;;;;;0.12;74.92;101792.11;108082;1277;59938;-75
2022/03/06 04:55:31;;;;;;;4.20;2.70;;;;;;;0.11;74.98;101796.16;108192;1277;59919;-76
2022/03/06 04:57:57;;;;;;;4.50;2.00;;;;;;;0.09;74.92;101793.30;108123;1277;60219;-76
2022/03/06 05:00:24;;;;;;;4.10;2.40;;;;;;;0.08;75.09;101795.66;108230;1277;60245;-76
2022/03/06 05:02:51;;;;;;;4.80;2.00;;;;;;;0.05;75.25;101797.34;108159;1277;71894;-75
2022/03/06 05:05:18;;;;;;;4.70;1.90;;;;;;;0.04;75.31;101798.07;108140;1276;61696;-75
2022/03/06 05:07:44;;;;;;;2.90;1.70;;;;;;;0.01;75.41;101796.86;108076;1277;60297;-73
2022/03/06 05:10:11;;;;;;;4.10;2.80;;;;;;;-0.00;75.51;101800.73;107979;1277;59973;-74
2022/03/06 05:12:41;;;;;;;4.80;1.70;;;;;;;-0.01;75.55;101799.91;108059;1277;72392;-75
2022/03/06 05:18:59;;;;;;;7.90;2.80;;;;;;;-0.02;75.80;101800.34;108217;1277;62054;-74
2022/03/06 05:21:26;;;;;;;2.90;1.70;;;;;;;-0.02;75.65;101799.09;108203;1275;60577;-75
2022/03/06 05:23:52;;;;;;;5.20;2.80;;;;;;;-0.02;75.69;101798.22;108045;1277;75725;-74
2022/03/06 05:26:19;;;;;;;3.70;2.20;;;;;;;-0.02;75.68;101803.79;108104;1277;73382;-75
2022/03/06 05:28:46;;;;;;;5.70;2.30;;;;;;;-0.03;75.75;101805.77;108195;1277;74172;-73
2022/03/06 05:31:12;;;;;;;6.30;3.40;;;;;;;-0.04;75.69;101800.93;108106;1277;61864;-74
2022/03/06 05:33:39;;;;;;;4.70;2.70;;;;;;;-0.04;75.69;101807.02;108175;1277;61609;-74
2022/03/06 05:36:06;;;;;;;3.80;1.70;;;;;;;-0.05;75.70;101803.25;108042;1277;74726;-75
2022/03/06 05:38:32;;;;;;;4.00;2.50;;;;;;;-0.06;75.78;101812.17;107988;1277;71406;-74
2022/03/06 05:40:59;;;;;;;5.10;2.50;;;;;;;-0.06;75.66;101813.23;108216;1277;59246;-74
2022/03/06 05:43:25;;;;;;;6.10;2.80;;;;;;;-0.09;75.85;101809.85;108169;1277;61402;-74
2022/03/06 05:45:52;;;;;;;7.10;2.40;;;;;;;-0.10;75.84;101809.21;108255;1277;60489;-74
2022/03/06 05:48:20;;;;;;;7.40;3.10;;;;;;;-0.10;75.94;101809.95;108214;1277;76669;-75
2022/03/06 05:50:47;;;;;;;6.50;2.90;;;;;;;-0.11;75.77;101816.23;108215;1277;72586;-74
2022/03/06 05:53:14;;;;;;;3.40;1.40;;;;;;;-0.11;75.71;101818.48;107984;1277;73062;-74
2022/03/06 05:55:41;;;;;;;3.60;2.40;;;;;;;-0.12;75.69;101821.00;108228;1276;62444;-75
2022/03/06 05:58:07;;;;;;;5.90;2.80;;;;;;;-0.13;75.61;101825.91;108001;1277;60803;-74
2022/03/06 06:00:34;;;;;;;4.40;3.10;;;;;;;-0.13;75.60;101827.85;108030;1276;76726;-73
2022/03/06 06:03:02;;;;;;;6.60;2.70;;;;;;;-0.12;75.81;101824.82;107985;1277;72802;-76
2022/03/06 06:05:29;;;;;;;4.40;2.40;;;;;;;-0.11;75.55;101824.08;108237;1277;72648;-76
2022/03/06 06:07:56;;;;;;;7.00;2.80;;;;;;;-0.11;75.43;101828.55;107943;1277;61402;-76
2022/03/06 06:10:22;;;;;;;4.00;2.20;;;;;;;-0.10;75.40;101832.54;108222;1277;61425;-76
2022/03/06 06:12:49;;;;;;;5.00;2.60;;;;;;;-0.10;75.38;101838.61;108182;1276;75719;-75
2022/03/06 06:15:16;;;;;;;4.90;2.80;;;;;;;-0.10;75.15;101836.34;108222;1277;59236;-75
2022/03/06 06:17:43;;;;;;;4.70;2.10;;;;;;;-0.09;75.06;101836.66;108181;1277;74071;-74
2022/03/06 06:20:10;;;;;;;6.10;2.50;;;;;;;-0.09;74.98;101838.55;108248;1276;60403;-74
2022/03/06 06:22:36;;;;;;;8.00;3.50;;;;;;;-0.08;74.93;101839.37;108190;1277;60780;-74
2022/03/06 06:25:04;;;;;;;4.80;1.90;;;;;;;-0.06;74.70;101841.55;108191;1277;59957;-75
2022/03/06 06:27:30;;;;;;;7.80;2.70;;;;;;;-0.05;74.59;101838.38;108193;1277;72560;-76
2022/03/06 06:29:57;;;;;;;4.20;2.90;;;;;;;-0.04;74.50;101839.54;108014;1277;73141;-76
2022/03/06 06:32:24;;;;;;;5.10;3.20;;;;;;;-0.01;74.59;101835.74;108128;1277;59859;-74
2022/03/06 06:34:53;;;;;;;5.10;2.60;;;;;;;0.02;74.37;101842.02;108001;1277;61617;-74
2022/03/06 06:37:20;;;;;;;5.50;3.00;;;;;;;0.04;74.29;101848.18;108152;1277;75735;-74
2022/03/06 06:39:47;;;;;;;4.50;2.50;;;;;;;0.06;74.31;101849.14;108156;1277;71360;-73
2022/03/06 06:42:13;;;;;;;5.10;2.40;;;;;;;0.09;74.20;101849.83;108146;1277;59935;-74
2022/03/06 06:44:40;;;;;;;4.50;2.30;;;;;;;0.12;74.11;101849.33;108110;1277;59925;-74
2022/03/06 06:51:05;;;;;;;4.40;2.20;;;;;;;0.17;73.89;101856.70;108095;1277;74355;-75
2022/03/06 06:53:32;;;;;;;4.80;2.10;;;;;;;0.21;73.77;101859.46;107993;1277;71644;-74
2022/03/06 06:55:59;;;;;;;4.00;1.70;;;;;;;0.25;73.63;101860.52;108046;1277;73141;-75
2022/03/06 06:59:18;;;;;;;5.30;2.70;;;;;;;0.28;73.57;101859.15;108145;1277;59836;-74
2022/03/06 07:01:45;;;;;;;3.40;2.30;;;;;;;0.33;73.42;101860.26;108124;1276;60998;-74
2022/03/06 07:04:11;;;;;;;3.00;1.90;;;;;;;0.36;73.56;101859.23;107995;1277;75669;-74
2022/03/06 07:06:38;;;;;;;5.40;2.50;;;;;;;0.40;73.39;101859.70;108196;1277;59917;-74
2022/03/06 07:09:04;;;;;;;3.10;2.00;;;;;;;0.44;73.46;101865.08;108044;1277;59917;-74
2022/03/06 07:11:31;;;;;;;4.50;1.90;;;;;;;0.49;73.32;101864.98;108027;1277;59879;-75
2022/03/06 07:13:58;;;;;;;3.20;2.00;;;;;;;0.54;73.33;101862.83;108039;1277;60155;-74
2022/03/06 07:16:32;;;;;;;3.50;1.90;;;;;;;0.59;72.96;101867.08;108042;1277;76802;-75
2022/03/06 07:18:59;;;;;;;4.50;2.60;;;;;;;0.63;72.81;101872.61;107968;1277;72051;-75
2022/03/06 07:21:25;;;;;;;5.10;2.70;;;;;;;0.68;72.68;101876.52;108069;1277;72903;-74
2022/03/06 07:23:52;;;;;;;4.30;2.50;;;;;;;0.74;72.41;101881.95;108060;1277;60416;-74
2022/03/06 07:26:18;;;;;;;7.00;3.10;;;;;;;0.78;72.07;101879.98;108160;1277;59945;-74
2022/03/06 07:28:45;;;;;;;4.90;2.60;;;;;;;0.82;71.84;101880.29;108027;1277;60027;-75
2022/03/06 07:31:12;;;;;;;4.90;2.10;;;;;;;0.87;71.85;101883.36;108115;1277;59912;-74
2022/03/06 07:33:39;;;;;;;4.60;2.50;;;;;;;0.92;71.50;101890.91;107962;1277;73032;-76
2022/03/06 07:36:06;;;;;;;4.80;2.60;;;;;;;0.98;71.38;101894.42;108020;1277;62564;-75
2022/03/06 07:38:33;;;;;;;3.90;2.20;;;;;;;1.05;71.21;101896.48;107704;1279;60471;-76
2022/03/06 07:40:59;;;;;;;4.40;2.70;;;;;;;1.10;70.84;101902.09;107754;1277;357299;-74
2022/03/06 07:43:26;;;;;;;4.70;2.20;;;;;;;1.15;70.66;101898.20;107985;1277;60060;-76
2022/03/06 07:45:52;;;;;;;3.70;2.00;;;;;;;1.18;70.55;101905.48;108053;1277;59859;-76
2022/03/06 07:48:19;;;;;;;4.30;1.90;;;;;;;1.21;69.79;101902.91;107982;1277;59810;-75
2022/03/06 07:50:46;;;;;;;5.40;2.80;;;;;;;1.21;69.50;101907.79;107839;1277;59984;-74
2022/03/06 07:53:12;;;;;;;4.80;2.90;;;;;;;1.24;69.94;101907.48;107840;1277;60379;-75
2022/03/06 07:55:39;;;;;;;4.60;2.90;;;;;;;1.31;70.02;101912.11;107944;1278;60337;-74
2022/03/06 07:58:05;;;;;;;4.50;2.60;;;;;;;1.40;70.05;101915.11;107998;1277;74034;-75
2022/03/06 08:00:32;;;;;;;5.10;2.20;;;;;;;1.48;69.71;101915.54;108041;1278;60035;-74
2022/03/06 08:02:58;;;;;;;4.10;2.10;;;;;;;1.53;69.26;101917.89;108020;1277;60371;-74
2022/03/06 08:05:25;;;;;;;3.80;2.00;;;;;;;1.52;68.58;101923.01;108079;1278;76640;-74
2022/03/06 08:07:51;;;;;;;3.00;1.80;;;;;;;1.50;68.74;101924.85;107814;1280;72782;-74
2022/03/06 08:10:18;;;;;;;5.30;2.30;;;;;;;1.53;68.62;101925.58;108109;1277;59984;-75
2022/03/06 08:12:48;;;;;;;6.00;2.80;;;;;;;1.56;68.32;101926.06;108022;1277;60159;-74
2022/03/06 08:15:14;;;;;;;3.80;1.90;;;;;;;1.60;68.13;101921.99;108110;1277;61565;-75
2022/03/06 08:17:44;;;;;;;8.20;2.70;;;;;;;1.64;67.85;101923.02;108057;1277;77232;-74
2022/03/06 08:20:11;;;;;;;4.50;2.60;;;;;;;1.69;67.83;101919.25;107946;1277;71342;-73
2022/03/06 08:22:38;;;;;;;6.10;2.70;;;;;;;1.76;67.69;101925.65;107744;1277;73995;-74
2022/03/06 08:25:05;;;;;;;4.40;2.70;;;;;;;1.83;67.40;101927.34;107736;1277;60439;-73
2022/03/06 08:27:32;;;;;;;3.40;2.00;;;;;;;1.90;67.25;101929.20;107758;1278;60683;-72
2022/03/06 08:29:59;;;;;;;3.70;2.00;;;;;;;1.97;66.85;101936.47;107707;1278;76807;-73
2022/03/06 08:32:26;;;;;;;6.90;2.20;;;;;;;2.06;66.82;101937.90;107533;1279;71944;-74
2022/03/06 08:34:54;;;;;;;3.50;2.20;;;;;;;2.12;66.14;101937.40;107683;1277;74922;-74
2022/03/06 08:37:21;;;;;;;2.70;1.60;;;;;;;2.15;66.01;101937.01;107684;1277;60674;-74
2022/03/06 08:39:48;;;;;;;3.20;1.90;;;;;;;2.20;66.30;101941.91;107736;1277;60079;-73
2022/03/06 08:42:15;;;;;;;5.50;2.00;;;;;;;2.27;66.14;101938.94;107611;1279;75330;-73
2022/03/06 08:44:42;;;;;;;4.10;2.10;;;;;;;2.34;65.94;101941.48;107673;1277;71178;-74
2022/03/06 08:47:09;;;;;;;3.40;2.10;;;;;;;2.39;65.27;101944.31;107734;1277;73025;-74
2022/03/06 08:49:35;;;;;;;6.00;2.40;;;;;;;2.45;65.07;101941.84;107873;1277;60046;-73
2022/03/06 08:52:02;;;;;;;3.90;2.10;;;;;;;2.51;64.61;101935.91;108059;1277;61772;-73
2022/03/06 08:54:29;;;;;;;5.50;2.50;;;;;;;2.58;64.34;101936.94;108077;1277;75769;-74
2022/03/06 08:56:58;;;;;;;3.00;1.60;;;;;;;2.65;64.12;101943.98;108124;1277;59975;-73
2022/03/06 08:59:25;;;;;;;3.50;1.80;;;;;;;2.73;63.69;101947.36;107988;1278;72704;-73
2022/03/06 09:01:55;;;;;;;3.80;1.90;;;;;;;2.78;63.34;101947.74;108115;1277;60053;-74
2022/03/06 09:04:23;;;;;;;6.40;2.70;;;;;;;2.82;63.18;101949.78;108124;1277;61361;-74
2022/03/06 09:06:50;;;;;;;7.80;3.00;;;;;;;2.89;62.81;101946.40;108161;1277;75767;-74
2022/03/06 09:09:20;;;;;;;7.40;2.80;;;;;;;2.95;62.58;101949.18;107996;1279;72340;-73
2022/03/06 09:11:46;;;;;;;5.40;2.20;;;;;;;3.02;62.51;101945.20;107861;1280;72922;-74
2022/03/06 09:14:13;;;;;;;5.90;2.10;;;;;;;3.09;62.31;101945.52;108125;1277;59783;-74
2022/03/06 09:16:39;;;;;;;3.70;2.00;;;;;;;3.19;62.47;101952.74;108086;1277;59909;-74
2022/03/06 09:19:06;;;;;;;3.90;1.80;;;;;;;3.29;62.13;101953.70;108071;1277;74899;-74
2022/03/06 09:21:32;;;;;;;5.80;2.20;;;;;;;3.35;61.55;101949.98;108136;1277;71364;-73
2022/03/06 09:24:00;;;;;;;4.20;1.70;;;;;;;3.39;61.80;101950.93;108089;1277;59969;-74
2022/03/06 09:26:27;;;;;;;3.60;1.70;;;;;;;3.42;61.29;101948.87;108078;1277;59911;-74
2022/03/06 09:28:53;;;;;;;4.10;1.70;;;;;;;3.47;61.25;101951.17;108089;1278;60033;-73
2022/03/06 09:31:22;;;;;;;4.40;1.80;;;;;;;3.49;59.98;101949.48;108154;1277;76694;-74
2022/03/06 09:33:48;;;;;;;5.20;1.90;;;;;;;3.50;59.69;101945.52;108170;1277;70699;-74
2022/03/06 09:36:37;;;;;;;3.10;1.40;;;;;;;3.55;59.80;101947.17;108215;1276;76125;-74
2022/03/06 09:39:05;;;;;;;1.80;1.20;;;;;;;3.60;59.67;101948.20;108202;1277;60580;-74
2022/03/06 09:41:31;;;;;;;3.00;1.80;;;;;;;3.61;59.18;101951.48;108223;1277;60036;-74
2022/03/06 09:43:58;;;;;;;4.20;1.30;;;;;;;3.61;59.05;101958.63;108181;1277;76726;-74
2022/03/06 09:46:25;;;;;;;4.30;1.80;;;;;;;3.57;58.59;101960.52;108182;1277;72470;-75
2022/03/06 09:48:52;;;;;;;2.90;1.80;;;;;;;3.56;58.58;101963.16;108178;1277;73098;-74
2022/03/06 09:51:20;;;;;;;3.20;1.70;;;;;;;3.55;58.25;101965.15;108242;1277;59917;-74
2022/03/06 09:53:46;;;;;;;3.00;1.30;;;;;;;3.53;57.58;101968.42;108172;1277;60551;-74
2022/03/06 09:56:13;;;;;;;3.00;1.60;;;;;;;3.50;57.07;101971.07;108232;1277;60440;-75
2022/03/06 09:58:39;;;;;;;3.00;1.70;;;;;;;3.46;57.34;101967.45;108214;1277;59951;-75
2022/03/06 10:01:05;;;;;;;3.20;1.80;;;;;;;3.46;57.41;101962.09;108211;1277;60615;-75
2022/03/06 10:03:35;;;;;;;5.10;1.90;;;;;;;3.50;57.42;101966.88;108171;1277;59889;-74
2022/03/06 10:06:07;;;;;;;3.00;1.80;;;;;;;3.54;57.25;101969.44;108213;1277;60632;-75
2022/03/06 10:08:34;;;;;;;4.20;1.90;;;;;;;3.56;56.68;101963.50;108213;1277;75792;-75
2022/03/06 10:11:09;;;;;;;3.80;1.80;;;;;;;3.53;55.98;101964.80;108208;1277;72726;-75
2022/03/06 10:13:44;;;;;;;3.50;1.80;;;;;;;3.53;56.69;101959.02;108168;1277;72959;-73
2022/03/06 10:16:14;;;;;;;3.50;1.80;;;;;;;3.60;56.38;101960.27;108032;1277;61101;-73
2022/03/06 10:18:47;;;;;;;2.70;1.80;;;;;;;3.65;56.29;101965.53;108244;1277;60790;-74
2022/03/06 10:21:26;;;;;;;3.00;1.70;;;;;;;3.73;55.73;101963.32;108164;1277;76894;-74
2022/03/06 10:23:56;;;;;;;4.70;2.10;;;;;;;3.80;54.98;101960.98;108216;1277;71026;-74
2022/03/06 10:26:25;;;;;;;6.40;3.00;;;;;;;3.86;55.09;101961.58;108179;1277;74280;-73
2022/03/06 10:28:54;;;;;;;4.00;2.20;;;;;;;3.97;55.27;101960.33;108218;1277;59980;-73
2022/03/06 10:31:23;;;;;;;3.50;1.80;;;;;;;4.05;54.37;101957.35;107998;1277;60993;-74
2022/03/06 10:34:11;;;;;;;2.80;1.70;;;;;;;4.14;54.23;101956.46;108244;1277;75474;-75
2022/03/06 10:36:40;;;;;;;3.90;2.50;;;;;;;4.19;53.04;101960.83;108205;1277;71491;-74
2022/03/06 10:39:19;;;;;;;5.10;2.40;;;;;;;4.21;51.98;101954.42;108238;1275;72696;-74
2022/03/06 10:41:54;;;;;;;6.60;2.40;;;;;;;4.21;51.78;101954.37;108000;1277;60046;-74
2022/03/06 10:44:21;;;;;;;;;;;;;;;4.26;51.75;101957.05;108269;1277;60797;-75
2022/03/06 10:47:04;;;;;;;3.90;2.60;;;;;;;4.30;51.78;101959.94;108195;1277;75150;-73
2022/03/06 10:49:34;;;;;;;6.10;1.50;;;;;;;4.37;51.67;101961.23;108222;1276;71169;-74
2022/03/06 10:52:19;;;;;;;4.70;2.90;;;;;;;4.43;51.48;101958.49;108192;1277;72998;-74
2022/03/06 10:54:49;;;;;;;;;;;;;;;4.52;50.78;101958.30;108222;1277;60410;-74
2022/03/06 10:57:16;;;;;;;7.50;2.40;;;;;;;4.60;50.95;101954.56;108206;1277;60229;-74
2022/03/06 10:59:44;;;;;;;3.90;2.20;;;;;;;4.70;50.46;101957.58;108195;1277;59760;-73
2022/03/06 11:02:12;;;;;;;4.10;2.50;;;;;;;4.81;50.22;101952.80;108134;1277;71309;-74
2022/03/06 11:04:39;;;;;;;4.10;2.20;;;;;;;4.89;50.44;101953.45;108153;1277;73012;-74
2022/03/06 11:07:06;;;;;;;6.50;2.60;;;;;;;4.98;49.69;101952.30;108254;1277;60876;-73
2022/03/06 11:09:33;;;;;;;5.00;2.00;;;;;;;5.02;49.68;101957.81;108211;1277;61657;-74
2022/03/06 11:12:01;;;;;;;2.90;1.80;;;;;;;5.01;49.13;101955.80;108247;1277;76785;-73
2022/03/06 11:14:30;;;;;;;4.50;1.90;;;;;;;4.99;49.06;101955.19;108195;1275;71530;-73
2022/03/06 11:16:56;;;;;;;4.50;2.70;;;;;;;4.95;48.25;101951.11;108236;1276;72924;-74
2022/03/06 11:19:24;;;;;;;5.70;2.80;;;;;;;4.82;47.66;101950.63;108200;1277;60020;-74
2022/03/06 11:21:59;;;;;;;4.00;2.10;;;;;;;4.69;47.38;101954.80;108190;1276;60279;-74
2022/03/06 11:24:28;;;;;;;3.80;2.30;;;;;;;4.58;47.88;101952.42;108199;1277;75492;-73
2022/03/06 11:27:08;;;;;;;4.10;2.00;;;;;;;4.48;46.64;101953.13;108066;1277;72979;-74
2022/03/06 11:30:01;;;;;;;6.00;2.70;;;;;;;4.27;46.12;101953.80;108162;1277;73038;-75
2022/03/06 11:32:31;;;;;;;4.10;2.30;;;;;;;4.11;46.41;101952.59;108187;1277;59929;-74
2022/03/06 11:35:17;;;;;;;4.70;2.70;;;;;;;4.04;47.27;101952.71;108130;1278;61664;-75